Tampa, Florida
Traffic Map
Current Weather Conditions
Tampa, Florida
Clear
Clear
23°
Feels Like: 23°
Wind Chill: 23° Ceiling: Unl
Heat Index: 23° Visibility: 10mi
Dew Point: 17° Wind: 3mph
Humidity: 68% Direction: 80° (E)
Pressure: 30.14in Gusts: 0mph
Raw Report DataKTPA 250853Z 08003KT 10SM CLR 23/17 A3014 RMK AO2 SLP207 T02330172 56001
Traffic Incident Summary
Active as of:
Severity:
Category:
InformationThere was an issue retrieving the traffic information for this location. Please try a different location or try again shortly.
Advertisements
Track Severe Weather on mobile